sensor_id;sensor_type;location;lat;lon;timestamp;pressure;altitude;pressure_sealevel;temperature;humidity
64792;BME280;51226;47.504;19.074;2022-10-17T00:01:28;101537.19;;;14.18;67.18
64792;BME280;51226;47.504;19.074;2022-10-17T00:04:31;101540.66;;;14.17;67.31
64792;BME280;51226;47.504;19.074;2022-10-17T00:07:38;101530.16;;;14.17;67.33
64792;BME280;51226;47.504;19.074;2022-10-17T00:10:41;101533.53;;;14.14;67.42
64792;BME280;51226;47.504;19.074;2022-10-17T00:13:45;101535.97;;;14.09;67.60
64792;BME280;51226;47.504;19.074;2022-10-17T00:16:48;101536.75;;;14.07;67.61
64792;BME280;51226;47.504;19.074;2022-10-17T00:19:51;101547.09;;;14.04;67.72
64792;BME280;51226;47.504;19.074;2022-10-17T00:22:54;101543.69;;;14.06;67.58
64792;BME280;51226;47.504;19.074;2022-10-17T00:26:00;101537.34;;;14.01;67.72
64792;BME280;51226;47.504;19.074;2022-10-17T00:29:03;101538.22;;;14.00;67.79
64792;BME280;51226;47.504;19.074;2022-10-17T00:32:06;101546.00;;;13.99;67.89
64792;BME280;51226;47.504;19.074;2022-10-17T00:35:09;101541.59;;;13.98;67.89
64792;BME280;51226;47.504;19.074;2022-10-17T00:38:12;101544.91;;;13.94;68.17
64792;BME280;51226;47.504;19.074;2022-10-17T00:41:17;101542.03;;;13.87;68.37
64792;BME280;51226;47.504;19.074;2022-10-17T00:47:32;101537.72;;;13.89;68.53
64792;BME280;51226;47.504;19.074;2022-10-17T00:50:39;101541.06;;;13.85;68.66
64792;BME280;51226;47.504;19.074;2022-10-17T00:53:43;101544.50;;;13.84;68.71
64792;BME280;51226;47.504;19.074;2022-10-17T00:56:46;101540.94;;;13.82;68.80
64792;BME280;51226;47.504;19.074;2022-10-17T00:59:54;101541.75;;;13.81;68.77
64792;BME280;51226;47.504;19.074;2022-10-17T01:02:58;101534.59;;;13.77;68.90
64792;BME280;51226;47.504;19.074;2022-10-17T01:06:01;101536.19;;;13.74;68.95
64792;BME280;51226;47.504;19.074;2022-10-17T01:09:04;101536.94;;;13.71;69.06
64792;BME280;51226;47.504;19.074;2022-10-17T01:12:21;101530.66;;;13.67;69.17
64792;BME280;51226;47.504;19.074;2022-10-17T01:18:58;101537.66;;;13.67;69.32
64792;BME280;51226;47.504;19.074;2022-10-17T01:22:16;101540.28;;;13.67;69.37
64792;BME280;51226;47.504;19.074;2022-10-17T01:25:40;101539.25;;;13.63;69.52
64792;BME280;51226;47.504;19.074;2022-10-17T01:32:32;101531.09;;;13.57;69.68
64792;BME280;51226;47.504;19.074;2022-10-17T01:35:42;101537.28;;;13.59;69.56
64792;BME280;51226;47.504;19.074;2022-10-17T01:39:35;101536.28;;;13.56;69.67
64792;BME280;51226;47.504;19.074;2022-10-17T01:42:50;101543.31;;;13.57;69.62
64792;BME280;51226;47.504;19.074;2022-10-17T01:46:02;101537.00;;;13.53;69.77
64792;BME280;51226;47.504;19.074;2022-10-17T01:49:09;101539.59;;;13.51;69.82
64792;BME280;51226;47.504;19.074;2022-10-17T01:52:19;101537.78;;;13.50;69.87
64792;BME280;51226;47.504;19.074;2022-10-17T01:55:28;101547.19;;;13.45;69.92
64792;BME280;51226;47.504;19.074;2022-10-17T01:58:39;101540.84;;;13.40;70.15
64792;BME280;51226;47.504;19.074;2022-10-17T02:01:45;101544.28;;;13.39;70.14
64792;BME280;51226;47.504;19.074;2022-10-17T02:04:51;101546.66;;;13.34;70.27
64792;BME280;51226;47.504;19.074;2022-10-17T02:07:54;101553.66;;;13.34;70.29
64792;BME280;51226;47.504;19.074;2022-10-17T02:11:08;101548.22;;;13.31;70.37
64792;BME280;51226;47.504;19.074;2022-10-17T02:17:40;101548.94;;;13.27;70.44
64792;BME280;51226;47.504;19.074;2022-10-17T02:20:53;101545.34;;;13.25;70.45
64792;BME280;51226;47.504;19.074;2022-10-17T02:27:41;101541.41;;;13.15;70.79
64792;BME280;51226;47.504;19.074;2022-10-17T02:31:06;101543.00;;;13.11;70.92
64792;BME280;51226;47.504;19.074;2022-10-17T02:34:25;101552.47;;;13.09;71.08
64792;BME280;51226;47.504;19.074;2022-10-17T02:37:31;101558.56;;;13.08;71.02
64792;BME280;51226;47.504;19.074;2022-10-17T02:40:36;101561.69;;;13.01;71.22
64792;BME280;51226;47.504;19.074;2022-10-17T02:43:39;101562.47;;;12.98;71.34
64792;BME280;51226;47.504;19.074;2022-10-17T02:46:50;101564.12;;;12.96;71.39
64792;BME280;51226;47.504;19.074;2022-10-17T02:49:57;101566.66;;;12.95;71.40
64792;BME280;51226;47.504;19.074;2022-10-17T02:53:08;101571.97;;;12.96;71.36
64792;BME280;51226;47.504;19.074;2022-10-17T02:56:18;101572.63;;;12.92;71.34
64792;BME280;51226;47.504;19.074;2022-10-17T02:59:23;101577.72;;;12.89;71.38
64792;BME280;51226;47.504;19.074;2022-10-17T03:02:37;101576.69;;;12.86;71.44
64792;BME280;51226;47.504;19.074;2022-10-17T03:05:40;101579.53;;;12.90;71.32
64792;BME280;51226;47.504;19.074;2022-10-17T03:08:43;101575.78;;;12.85;71.50
64792;BME280;51226;47.504;19.074;2022-10-17T03:11:46;101580.25;;;12.88;71.38
64792;BME280;51226;47.504;19.074;2022-10-17T03:14:49;101574.00;;;12.84;71.44
64792;BME280;51226;47.504;19.074;2022-10-17T03:17:52;101572.34;;;12.86;71.37
64792;BME280;51226;47.504;19.074;2022-10-17T03:20:55;101580.81;;;12.81;71.46
64792;BME280;51226;47.504;19.074;2022-10-17T03:23:57;101589.44;;;12.78;71.58
64792;BME280;51226;47.504;19.074;2022-10-17T03:27:00;101592.84;;;12.77;71.66
64792;BME280;51226;47.504;19.074;2022-10-17T03:30:04;101602.28;;;12.73;71.71
64792;BME280;51226;47.504;19.074;2022-10-17T03:33:07;101602.13;;;12.70;71.83
64792;BME280;51226;47.504;19.074;2022-10-17T03:36:13;101598.63;;;12.70;71.89
64792;BME280;51226;47.504;19.074;2022-10-17T03:39:16;101601.97;;;12.67;72.04
64792;BME280;51226;47.504;19.074;2022-10-17T03:42:19;101614.41;;;12.71;71.93
64792;BME280;51226;47.504;19.074;2022-10-17T03:45:23;101617.03;;;12.71;71.88
64792;BME280;51226;47.504;19.074;2022-10-17T03:48:26;101622.19;;;12.70;71.95
64792;BME280;51226;47.504;19.074;2022-10-17T03:51:32;101622.38;;;12.74;71.86
64792;BME280;51226;47.504;19.074;2022-10-17T03:54:35;101622.19;;;12.70;71.80
64792;BME280;51226;47.504;19.074;2022-10-17T03:57:38;101620.97;;;12.63;71.99
64792;BME280;51226;47.504;19.074;2022-10-17T04:00:47;101626.06;;;12.60;72.12
64792;BME280;51226;47.504;19.074;2022-10-17T04:03:50;101629.66;;;12.62;71.97
64792;BME280;51226;47.504;19.074;2022-10-17T04:06:53;101627.03;;;12.62;71.92
64792;BME280;51226;47.504;19.074;2022-10-17T04:09:56;101633.91;;;12.60;71.93
64792;BME280;51226;47.504;19.074;2022-10-17T04:12:59;101634.72;;;12.59;71.99
64792;BME280;51226;47.504;19.074;2022-10-17T04:16:05;101632.25;;;12.62;71.83
64792;BME280;51226;47.504;19.074;2022-10-17T04:19:12;101646.06;;;12.59;71.94
64792;BME280;51226;47.504;19.074;2022-10-17T04:22:15;101645.19;;;12.59;72.05
64792;BME280;51226;47.504;19.074;2022-10-17T04:25:17;101647.81;;;12.59;71.99
64792;BME280;51226;47.504;19.074;2022-10-17T04:28:20;101651.91;;;12.54;72.17
64792;BME280;51226;47.504;19.074;2022-10-17T04:31:23;101649.28;;;12.54;72.11
64792;BME280;51226;47.504;19.074;2022-10-17T04:34:28;101653.56;;;12.52;72.13
64792;BME280;51226;47.504;19.074;2022-10-17T04:37:30;101652.59;;;12.50;72.10
64792;BME280;51226;47.504;19.074;2022-10-17T04:40:35;101651.59;;;12.48;72.13
64792;BME280;51226;47.504;19.074;2022-10-17T04:43:39;101654.97;;;12.45;72.18
64792;BME280;51226;47.504;19.074;2022-10-17T04:46:42;101655.69;;;12.42;72.25
64792;BME280;51226;47.504;19.074;2022-10-17T04:49:45;101657.44;;;12.42;72.18
64792;BME280;51226;47.504;19.074;2022-10-17T04:52:48;101653.84;;;12.40;72.37
64792;BME280;51226;47.504;19.074;2022-10-17T04:55:51;101662.50;;;12.39;72.32
64792;BME280;51226;47.504;19.074;2022-10-17T04:58:54;101659.88;;;12.39;72.44
64792;BME280;51226;47.504;19.074;2022-10-17T05:01:56;101671.19;;;12.38;72.48
64792;BME280;51226;47.504;19.074;2022-10-17T05:05:00;101672.97;;;12.39;72.42
64792;BME280;51226;47.504;19.074;2022-10-17T05:08:04;101676.47;;;12.39;72.51
64792;BME280;51226;47.504;19.074;2022-10-17T05:11:37;101674.59;;;12.37;72.60
64792;BME280;51226;47.504;19.074;2022-10-17T05:14:40;101673.72;;;12.36;72.56
64792;BME280;51226;47.504;19.074;2022-10-17T05:17:43;101681.69;;;12.39;72.42
64792;BME280;51226;47.504;19.074;2022-10-17T05:20:46;101682.53;;;12.38;72.41
64792;BME280;51226;47.504;19.074;2022-10-17T05:23:49;101687.19;;;12.44;72.26
64792;BME280;51226;47.504;19.074;2022-10-17T05:26:52;101687.34;;;12.47;72.20
64792;BME280;51226;47.504;19.074;2022-10-17T05:29:55;101690.19;;;12.52;72.03
64792;BME280;51226;47.504;19.074;2022-10-17T05:32:58;101705.91;;;12.52;72.15
64792;BME280;51226;47.504;19.074;2022-10-17T05:36:01;101705.00;;;12.51;72.31
64792;BME280;51226;47.504;19.074;2022-10-17T05:39:04;101705.63;;;12.64;71.88
64792;BME280;51226;47.504;19.074;2022-10-17T05:42:08;101714.53;;;12.67;72.07
64792;BME280;51226;47.504;19.074;2022-10-17T05:45:12;101720.28;;;12.60;72.47
64792;BME280;51226;47.504;19.074;2022-10-17T05:48:15;101717.81;;;12.63;72.25
64792;BME280;51226;47.504;19.074;2022-10-17T05:51:18;101718.44;;;12.75;71.50
64792;BME280;51226;47.504;19.074;2022-10-17T05:54:25;101728.22;;;12.79;71.37
64792;BME280;51226;47.504;19.074;2022-10-17T05:57:28;101732.13;;;12.88;71.01
64792;BME280;51226;47.504;19.074;2022-10-17T06:00:32;101739.91;;;12.86;71.09
64792;BME280;51226;47.504;19.074;2022-10-17T06:03:35;101734.41;;;12.98;70.45
64792;BME280;51226;47.504;19.074;2022-10-17T06:06:38;101749.03;;;12.94;70.60
64792;BME280;51226;47.504;19.074;2022-10-17T06:09:42;101748.25;;;12.95;70.54
64792;BME280;51226;47.504;19.074;2022-10-17T06:12:46;101749.53;;;13.04;70.14
64792;BME280;51226;47.504;19.074;2022-10-17T06:15:49;101758.59;;;13.10;69.91
64792;BME280;51226;47.504;19.074;2022-10-17T06:18:52;101765.69;;;13.13;69.84
64792;BME280;51226;47.504;19.074;2022-10-17T06:21:55;101764.59;;;13.26;69.33
64792;BME280;51226;47.504;19.074;2022-10-17T06:24:59;101773.22;;;13.23;69.55
64792;BME280;51226;47.504;19.074;2022-10-17T06:28:02;101774.88;;;13.39;68.82
64792;BME280;51226;47.504;19.074;2022-10-17T06:31:10;101781.78;;;13.37;68.94
64792;BME280;51226;47.504;19.074;2022-10-17T06:34:14;101774.22;;;13.43;68.77
64792;BME280;51226;47.504;19.074;2022-10-17T06:37:18;101784.59;;;13.60;68.23
64792;BME280;51226;47.504;19.074;2022-10-17T06:40:21;101791.72;;;13.62;68.32
64792;BME280;51226;47.504;19.074;2022-10-17T06:43:26;101794.91;;;13.75;67.89
64792;BME280;51226;47.504;19.074;2022-10-17T06:46:30;101800.78;;;13.87;67.51
64792;BME280;51226;47.504;19.074;2022-10-17T06:49:33;101793.00;;;14.08;66.59
64792;BME280;51226;47.504;19.074;2022-10-17T06:52:36;101794.88;;;14.11;66.28
64792;BME280;51226;47.504;19.074;2022-10-17T06:55:41;101810.13;;;14.19;65.80
64792;BME280;51226;47.504;19.074;2022-10-17T06:58:44;101801.03;;;14.31;65.21
64792;BME280;51226;47.504;19.074;2022-10-17T07:01:48;101813.00;;;14.43;64.28
64792;BME280;51226;47.504;19.074;2022-10-17T07:04:51;101810.03;;;14.55;63.69
64792;BME280;51226;47.504;19.074;2022-10-17T07:07:54;101805.41;;;14.69;63.31
64792;BME280;51226;47.504;19.074;2022-10-17T07:10:57;101816.78;;;14.89;61.62
64792;BME280;51226;47.504;19.074;2022-10-17T07:14:01;101819.75;;;15.18;61.20
64792;BME280;51226;47.504;19.074;2022-10-17T07:17:04;101821.47;;;15.60;59.39
64792;BME280;51226;47.504;19.074;2022-10-17T07:20:07;101824.66;;;15.95;58.18
64792;BME280;51226;47.504;19.074;2022-10-17T07:23:11;101815.25;;;16.24;57.56
64792;BME280;51226;47.504;19.074;2022-10-17T07:26:16;101811.28;;;16.59;56.78
64792;BME280;51226;47.504;19.074;2022-10-17T07:29:19;101810.22;;;17.02;55.44
64792;BME280;51226;47.504;19.074;2022-10-17T07:32:24;101814.62;;;17.29;54.11
64792;BME280;51226;47.504;19.074;2022-10-17T07:35:27;101817.09;;;17.79;52.72
64792;BME280;51226;47.504;19.074;2022-10-17T07:38:31;101814.03;;;18.21;51.63
64792;BME280;51226;47.504;19.074;2022-10-17T07:41:34;101815.03;;;18.87;50.08
64792;BME280;51226;47.504;19.074;2022-10-17T07:44:38;101814.69;;;20.60;45.47
64792;BME280;51226;47.504;19.074;2022-10-17T07:47:41;101820.34;;;23.28;39.25
64792;BME280;51226;47.504;19.074;2022-10-17T07:50:44;101813.31;;;25.35;35.45
64792;BME280;51226;47.504;19.074;2022-10-17T07:53:47;101807.84;;;27.51;31.54
64792;BME280;51226;47.504;19.074;2022-10-17T07:56:50;101806.19;;;28.23;29.96
64792;BME280;51226;47.504;19.074;2022-10-17T07:59:53;101809.69;;;29.99;27.45
64792;BME280;51226;47.504;19.074;2022-10-17T08:02:56;101813.84;;;32.63;23.92
64792;BME280;51226;47.504;19.074;2022-10-17T08:06:00;101808.75;;;36.07;20.08
64792;BME280;51226;47.504;19.074;2022-10-17T08:09:03;101814.72;;;38.63;17.14
64792;BME280;51226;47.504;19.074;2022-10-17T08:12:06;101814.25;;;39.92;15.70
64792;BME280;51226;47.504;19.074;2022-10-17T08:15:09;101818.06;;;40.04;15.11
64792;BME280;51226;47.504;19.074;2022-10-17T08:18:13;101823.47;;;39.60;15.50
64792;BME280;51226;47.504;19.074;2022-10-17T08:21:16;101817.63;;;39.06;16.10
64792;BME280;51226;47.504;19.074;2022-10-17T08:24:19;101823.09;;;39.06;15.92
64792;BME280;51226;47.504;19.074;2022-10-17T08:27:22;101808.66;;;39.79;14.99
64792;BME280;51226;47.504;19.074;2022-10-17T08:30:27;101813.72;;;41.39;13.72
64792;BME280;51226;47.504;19.074;2022-10-17T08:33:32;101819.16;;;43.85;11.53
64792;BME280;51226;47.504;19.074;2022-10-17T08:36:35;101819.03;;;46.13;10.11
64792;BME280;51226;47.504;19.074;2022-10-17T08:39:39;101827.25;;;47.81;8.91
64792;BME280;51226;47.504;19.074;2022-10-17T08:46:30;101809.75;;;49.62;7.63
64792;BME280;51226;47.504;19.074;2022-10-17T08:49:44;101800.81;;;49.76;7.50
64792;BME280;51226;47.504;19.074;2022-10-17T08:56:40;101804.13;;;50.14;7.16
64792;BME280;51226;47.504;19.074;2022-10-17T08:59:56;101803.25;;;49.79;7.24
64792;BME280;51226;47.504;19.074;2022-10-17T09:06:20;101797.59;;;48.74;7.53
64792;BME280;51226;47.504;19.074;2022-10-17T09:22:59;101791.81;;;36.21;15.99
64792;BME280;51226;47.504;19.074;2022-10-17T09:26:03;101785.22;;;34.82;17.34
64792;BME280;51226;47.504;19.074;2022-10-17T09:29:23;101784.47;;;33.84;18.36
64792;BME280;51226;47.504;19.074;2022-10-17T09:32:26;101781.69;;;33.09;19.25
64792;BME280;51226;47.504;19.074;2022-10-17T09:35:30;101784.16;;;32.90;19.57
64792;BME280;51226;47.504;19.074;2022-10-17T09:38:44;101790.50;;;32.59;19.84
64792;BME280;51226;47.504;19.074;2022-10-17T09:41:51;101786.81;;;32.33;19.79
64792;BME280;51226;47.504;19.074;2022-10-17T09:48:45;101789.47;;;31.37;20.12
64792;BME280;51226;47.504;19.074;2022-10-17T09:51:40;101785.97;;;30.98;20.67
64792;BME280;51226;47.504;19.074;2022-10-17T09:55:04;101784.31;;;30.53;20.51
64792;BME280;51226;47.504;19.074;2022-10-17T09:58:09;101783.25;;;27.99;23.78
64792;BME280;51226;47.504;19.074;2022-10-17T10:04:28;101783.88;;;28.21;24.19
64792;BME280;51226;47.504;19.074;2022-10-17T10:07:38;101779.75;;;28.63;23.82
64792;BME280;51226;47.504;19.074;2022-10-17T10:10:42;101786.25;;;28.44;23.53
64792;BME280;51226;47.504;19.074;2022-10-17T10:13:47;101787.44;;;28.20;24.12
64792;BME280;51226;47.504;19.074;2022-10-17T10:16:51;101774.00;;;28.21;24.00
64792;BME280;51226;47.504;19.074;2022-10-17T10:19:55;101778.94;;;28.55;23.57
64792;BME280;51226;47.504;19.074;2022-10-17T10:23:16;101775.22;;;28.66;23.49
64792;BME280;51226;47.504;19.074;2022-10-17T10:26:25;101778.22;;;29.01;23.37
64792;BME280;51226;47.504;19.074;2022-10-17T10:29:33;101777.28;;;29.06;23.28
64792;BME280;51226;47.504;19.074;2022-10-17T10:32:37;101771.56;;;29.77;22.63
64792;BME280;51226;47.504;19.074;2022-10-17T10:35:40;101770.00;;;30.10;22.25
64792;BME280;51226;47.504;19.074;2022-10-17T10:38:51;101764.84;;;30.40;21.66
64792;BME280;51226;47.504;19.074;2022-10-17T10:41:56;101771.63;;;30.18;21.89
64792;BME280;51226;47.504;19.074;2022-10-17T10:48:33;101754.97;;;29.99;22.11
64792;BME280;51226;47.504;19.074;2022-10-17T10:51:42;101753.91;;;30.07;22.16
64792;BME280;51226;47.504;19.074;2022-10-17T10:55:01;101756.59;;;30.07;22.37
64792;BME280;51226;47.504;19.074;2022-10-17T10:58:22;101759.88;;;30.20;21.93
64792;BME280;51226;47.504;19.074;2022-10-17T11:11:25;101759.53;;;29.48;23.22
64792;BME280;51226;47.504;19.074;2022-10-17T11:14:40;101748.63;;;29.05;23.41
64792;BME280;51226;47.504;19.074;2022-10-17T11:21:04;101757.75;;;28.94;23.48
64792;BME280;51226;47.504;19.074;2022-10-17T11:24:23;101747.28;;;28.77;23.95
64792;BME280;51226;47.504;19.074;2022-10-17T11:27:28;101732.78;;;28.88;23.92
64792;BME280;51226;47.504;19.074;2022-10-17T11:34:15;101742.97;;;29.22;23.46
64792;BME280;51226;47.504;19.074;2022-10-17T11:37:28;101732.69;;;28.94;23.71
64792;BME280;51226;47.504;19.074;2022-10-17T11:40:35;101735.75;;;28.72;24.07
64792;BME280;51226;47.504;19.074;2022-10-17T11:50:34;101721.75;;;29.05;23.91
64792;BME280;51226;47.504;19.074;2022-10-17T11:54:12;101717.31;;;29.52;23.71
64792;BME280;51226;47.504;19.074;2022-10-17T12:07:44;101713.09;;;29.38;23.67
64792;BME280;51226;47.504;19.074;2022-10-17T12:11:07;101716.38;;;29.05;24.14
64792;BME280;51226;47.504;19.074;2022-10-17T12:17:38;101697.31;;;29.22;23.82
64792;BME280;51226;47.504;19.074;2022-10-17T12:20:42;101694.44;;;29.32;23.74
64792;BME280;51226;47.504;19.074;2022-10-17T12:23:52;101696.84;;;29.45;24.12
64792;BME280;51226;47.504;19.074;2022-10-17T12:26:55;101693.00;;;29.58;23.56
64792;BME280;51226;47.504;19.074;2022-10-17T12:39:40;101678.41;;;29.26;23.14
64792;BME280;51226;47.504;19.074;2022-10-17T12:42:47;101678.41;;;29.26;23.49
64792;BME280;51226;47.504;19.074;2022-10-17T12:49:00;101678.44;;;28.72;23.89
64792;BME280;51226;47.504;19.074;2022-10-17T12:52:54;101672.09;;;28.18;24.40
64792;BME280;51226;47.504;19.074;2022-10-17T12:55:28;101670.25;;;27.55;25.17
64792;BME280;51226;47.504;19.074;2022-10-17T12:58:33;101665.50;;;27.76;24.93
64792;BME280;51226;47.504;19.074;2022-10-17T13:01:37;101672.81;;;27.63;24.73
64792;BME280;51226;47.504;19.074;2022-10-17T13:04:47;101667.09;;;27.11;25.48
64792;BME280;51226;47.504;19.074;2022-10-17T13:07:55;101664.34;;;27.17;25.58
64792;BME280;51226;47.504;19.074;2022-10-17T13:11:00;101671.41;;;27.25;25.35
64792;BME280;51226;47.504;19.074;2022-10-17T13:14:11;101663.72;;;26.92;25.63
64792;BME280;51226;47.504;19.074;2022-10-17T13:17:26;101669.38;;;26.51;25.99
64792;BME280;51226;47.504;19.074;2022-10-17T13:20:30;101666.09;;;26.10;25.82
64792;BME280;51226;47.504;19.074;2022-10-17T13:23:35;101664.47;;;25.69;26.41
64792;BME280;51226;47.504;19.074;2022-10-17T13:26:44;101663.69;;;25.44;27.11
64792;BME280;51226;47.504;19.074;2022-10-17T13:29:47;101656.56;;;25.26;27.78
64792;BME280;51226;47.504;19.074;2022-10-17T13:32:50;101655.75;;;24.91;28.52
64792;BME280;51226;47.504;19.074;2022-10-17T13:35:53;101661.09;;;24.88;28.90
64792;BME280;51226;47.504;19.074;2022-10-17T13:39:07;101649.53;;;24.82;28.51
64792;BME280;51226;47.504;19.074;2022-10-17T13:42:37;101655.75;;;24.59;28.19
64792;BME280;51226;47.504;19.074;2022-10-17T13:45:39;101664.59;;;24.39;28.00
64792;BME280;51226;47.504;19.074;2022-10-17T13:48:41;101654.81;;;24.28;28.09
64792;BME280;51226;47.504;19.074;2022-10-17T13:51:47;101657.47;;;24.26;28.16
64792;BME280;51226;47.504;19.074;2022-10-17T13:54:51;101656.56;;;24.19;28.46
64792;BME280;51226;47.504;19.074;2022-10-17T13:57:55;101656.56;;;24.16;28.56
64792;BME280;51226;47.504;19.074;2022-10-17T14:00:58;101662.78;;;24.20;28.79
64792;BME280;51226;47.504;19.074;2022-10-17T14:04:01;101660.09;;;24.15;29.01
64792;BME280;51226;47.504;19.074;2022-10-17T14:07:33;101656.47;;;23.85;29.27
64792;BME280;51226;47.504;19.074;2022-10-17T14:10:58;101658.28;;;23.91;29.48
64792;BME280;51226;47.504;19.074;2022-10-17T14:14:03;101654.63;;;23.75;29.53
64792;BME280;51226;47.504;19.074;2022-10-17T14:17:18;101650.13;;;23.63;29.54
64792;BME280;51226;47.504;19.074;2022-10-17T14:20:23;101646.53;;;23.49;29.87
64792;BME280;51226;47.504;19.074;2022-10-17T14:23:46;101648.19;;;23.31;30.40
64792;BME280;51226;47.504;19.074;2022-10-17T14:26:54;101640.09;;;23.11;30.53
64792;BME280;51226;47.504;19.074;2022-10-17T14:29:59;101645.22;;;22.90;30.94
64792;BME280;51226;47.504;19.074;2022-10-17T14:33:11;101644.28;;;22.77;31.07
64792;BME280;51226;47.504;19.074;2022-10-17T14:36:15;101654.88;;;22.74;31.13
64792;BME280;51226;47.504;19.074;2022-10-17T14:39:21;101654.72;;;22.54;31.43
64792;BME280;51226;47.504;19.074;2022-10-17T14:42:25;101656.34;;;22.41;31.77
64792;BME280;51226;47.504;19.074;2022-10-17T14:45:34;101657.06;;;22.28;31.92
64792;BME280;51226;47.504;19.074;2022-10-17T14:48:40;101648.91;;;22.08;32.38
64792;BME280;51226;47.504;19.074;2022-10-17T14:52:22;101649.66;;;21.97;32.68
64792;BME280;51226;47.504;19.074;2022-10-17T14:55:27;101643.47;;;21.97;32.84
64792;BME280;51226;47.504;19.074;2022-10-17T14:58:32;101651.38;;;21.91;33.14
64792;BME280;51226;47.504;19.074;2022-10-17T15:01:36;101650.31;;;21.78;33.52
64792;BME280;51226;47.504;19.074;2022-10-17T15:04:38;101649.41;;;21.74;33.81
64792;BME280;51226;47.504;19.074;2022-10-17T15:07:41;101645.72;;;21.64;33.92
64792;BME280;51226;47.504;19.074;2022-10-17T15:10:45;101647.37;;;21.56;34.04
64792;BME280;51226;47.504;19.074;2022-10-17T15:13:49;101647.28;;;21.47;34.30
64792;BME280;51226;47.504;19.074;2022-10-17T15:16:52;101641.88;;;21.42;34.65
64792;BME280;51226;47.504;19.074;2022-10-17T15:19:55;101648.88;;;21.36;34.72
64792;BME280;51226;47.504;19.074;2022-10-17T15:23:00;101659.38;;;21.29;35.52
64792;BME280;51226;47.504;19.074;2022-10-17T15:26:20;101656.69;;;21.28;35.63
64792;BME280;51226;47.504;19.074;2022-10-17T15:29:23;101656.50;;;21.14;35.97
64792;BME280;51226;47.504;19.074;2022-10-17T15:32:26;101658.16;;;21.06;36.45
64792;BME280;51226;47.504;19.074;2022-10-17T15:35:29;101654.56;;;21.02;36.85
64792;BME280;51226;47.504;19.074;2022-10-17T15:38:32;101657.06;;;20.91;37.27
64792;BME280;51226;47.504;19.074;2022-10-17T15:41:35;101660.53;;;20.87;37.43
64792;BME280;51226;47.504;19.074;2022-10-17T15:44:40;101667.44;;;20.78;37.67
64792;BME280;51226;47.504;19.074;2022-10-17T15:47:50;101669.28;;;20.82;37.96
64792;BME280;51226;47.504;19.074;2022-10-17T15:50:54;101670.81;;;20.69;38.28
64792;BME280;51226;47.504;19.074;2022-10-17T15:53:56;101683.97;;;20.63;38.65
64792;BME280;51226;47.504;19.074;2022-10-17T15:57:03;101681.34;;;20.64;39.10
64792;BME280;51226;47.504;19.074;2022-10-17T16:00:15;101684.53;;;20.48;39.51
64792;BME280;51226;47.504;19.074;2022-10-17T16:03:18;101688.75;;;20.35;39.78
64792;BME280;51226;47.504;19.074;2022-10-17T16:06:21;101687.81;;;20.31;40.05
64792;BME280;51226;47.504;19.074;2022-10-17T16:09:24;101685.84;;;20.23;40.32
64792;BME280;51226;47.504;19.074;2022-10-17T16:12:27;101699.00;;;20.16;40.54
64792;BME280;51226;47.504;19.074;2022-10-17T16:15:32;101695.31;;;20.08;40.71
64792;BME280;51226;47.504;19.074;2022-10-17T16:18:35;101696.12;;;20.06;40.96
64792;BME280;51226;47.504;19.074;2022-10-17T16:21:39;101697.72;;;19.97;40.96
64792;BME280;51226;47.504;19.074;2022-10-17T16:24:42;101699.34;;;19.91;41.03
64792;BME280;51226;47.504;19.074;2022-10-17T16:27:47;101700.22;;;19.90;41.17
64792;BME280;51226;47.504;19.074;2022-10-17T16:30:50;101698.22;;;19.79;41.26
64792;BME280;51226;47.504;19.074;2022-10-17T16:33:54;101697.25;;;19.76;41.42
64792;BME280;51226;47.504;19.074;2022-10-17T16:36:57;101693.50;;;19.66;41.56
64792;BME280;51226;47.504;19.074;2022-10-17T16:40:00;101698.72;;;19.61;41.73
64792;BME280;51226;47.504;19.074;2022-10-17T16:43:03;101703.03;;;19.58;41.89
64792;BME280;51226;47.504;19.074;2022-10-17T16:46:06;101706.38;;;19.51;42.08
64792;BME280;51226;47.504;19.074;2022-10-17T16:49:09;101710.78;;;19.50;42.16
64792;BME280;51226;47.504;19.074;2022-10-17T16:52:12;101711.53;;;19.43;42.46
64792;BME280;51226;47.504;19.074;2022-10-17T16:55:15;101714.97;;;19.40;42.76
64792;BME280;51226;47.504;19.074;2022-10-17T16:58:20;101713.97;;;19.35;42.90
64792;BME280;51226;47.504;19.074;2022-10-17T17:01:24;101720.06;;;19.31;42.94
64792;BME280;51226;47.504;19.074;2022-10-17T17:04:27;101719.03;;;19.26;43.22
64792;BME280;51226;47.504;19.074;2022-10-17T17:07:29;101725.97;;;19.21;43.58
64792;BME280;51226;47.504;19.074;2022-10-17T17:10:33;101714.44;;;19.17;43.66
64792;BME280;51226;47.504;19.074;2022-10-17T17:13:35;101723.94;;;19.09;43.86
64792;BME280;51226;47.504;19.074;2022-10-17T17:16:38;101730.00;;;19.05;44.03
64792;BME280;51226;47.504;19.074;2022-10-17T17:19:41;101729.88;;;19.00;44.26
64792;BME280;51226;47.504;19.074;2022-10-17T17:22:44;101727.97;;;18.93;44.53
64792;BME280;51226;47.504;19.074;2022-10-17T17:25:47;101733.12;;;18.88;44.97
64792;BME280;51226;47.504;19.074;2022-10-17T17:28:49;101729.34;;;18.80;45.20
64792;BME280;51226;47.504;19.074;2022-10-17T17:31:52;101733.59;;;18.74;45.46
64792;BME280;51226;47.504;19.074;2022-10-17T17:34:55;101735.16;;;18.67;45.75
64792;BME280;51226;47.504;19.074;2022-10-17T17:37:58;101740.28;;;18.61;46.01
64792;BME280;51226;47.504;19.074;2022-10-17T17:41:02;101734.81;;;18.53;46.50
64792;BME280;51226;47.504;19.074;2022-10-17T17:44:05;101735.47;;;18.46;46.88